Time;durP1;ratioP1;P1;durP2;ratioP2;P2;SDS_P1;SDS_P2;PMS_P1;PMS_P2;Temp;Humidity;BMP_temperature;BMP_pressure;BME280_temperature;BME280_humidity;BME280_pressure;Samples;Min_cycle;Max_cycle;Signal;HPM_P1;HPM_P2
2022/11/07 00:00:08;;;;;;;;;;;9.30;99.90;9.60;99798.00;;;;337824;28;86720;-95
2022/11/07 00:00:20;;;;;;;;;;;9.30;99.90;9.70;99799.00;;;;339147;28;82587;-95
2022/11/07 00:00:32;;;;;;;;;;;9.30;99.90;9.70;99790.00;;;;337738;28;87442;-95
2022/11/07 00:00:43;;;;;;;;;;;9.30;99.90;9.70;99792.00;;;;336604;28;82500;-95
2022/11/07 00:01:00;;;;;;;;;;;9.30;99.90;9.70;99798.00;;;;339090;28;87426;-95
2022/11/07 00:01:15;;;;;;;;;;;9.30;99.90;9.70;99793.00;;;;337926;28;83390;-94
2022/11/07 00:01:26;;;;;;;;;;;9.30;99.90;9.80;99804.00;;;;337816;28;87710;-95
2022/11/07 00:01:38;;;;;;;;;;;9.30;99.90;9.70;99796.00;;;;337796;28;82530;-95
2022/11/07 00:01:50;;;;;;;;;;;9.30;99.90;9.70;99793.00;;;;337841;28;86342;-95
2022/11/07 00:02:03;;;;;;;;;;;9.30;99.90;9.70;99792.00;;;;337959;28;82422;-94
2022/11/07 00:02:15;;;;;;;;;;;9.30;99.90;9.60;99798.00;;;;336390;28;86666;-95
2022/11/07 00:02:27;;;;;;;;;;;9.30;99.90;9.60;99796.00;;;;335035;29;83424;-95
2022/11/07 00:02:39;;;;;;;;;;;9.30;99.90;9.60;99805.00;;;;337839;28;86314;-94
2022/11/07 00:02:51;;;;;;;;;;;9.30;99.90;9.60;99800.00;;;;336548;28;83469;-95
2022/11/07 00:03:03;;;;;;;;;;;9.30;99.90;9.60;99796.00;;;;337641;28;87857;-95
2022/11/07 00:03:14;;;;;;;;;;;9.30;99.90;9.60;99799.00;;;;336632;28;83358;-95
2022/11/07 00:03:27;;;;;;;;;;;9.30;99.90;9.60;99797.00;;;;337781;28;87973;-95
2022/11/07 00:03:39;;;;;;;;;;;9.30;99.90;9.60;99801.00;;;;337842;28;83582;-95
2022/11/07 00:03:54;;;;;;;;;;;9.30;99.90;9.60;99806.00;;;;336562;28;83844;-94
2022/11/07 00:04:06;;;;;;;;;;;9.30;99.90;9.50;99797.00;;;;336663;28;82517;-94
2022/11/07 00:04:18;;;;;;;;;;;9.30;99.90;9.50;99798.00;;;;337649;28;87596;-95
2022/11/07 00:04:30;;;;;;;;;;;9.20;99.90;9.50;99799.00;;;;336622;28;82585;-94
2022/11/07 00:04:41;;;;;;;;;;;9.20;99.90;9.50;99798.00;;;;336625;28;85762;-95
2022/11/07 00:04:53;;;;;;;;;;;9.20;99.90;9.50;99799.00;;;;337875;28;83320;-94
2022/11/07 00:05:05;;;;;;;;;;;9.20;99.90;9.50;99807.00;;;;336222;28;86437;-95
2022/11/07 00:05:17;;;;;;;;;;;9.20;99.90;9.50;99803.00;;;;337872;28;83607;-95
2022/11/07 00:05:29;;;;;;;;;;;9.20;99.90;9.50;99790.00;;;;337760;28;88078;-94
2022/11/07 00:05:41;;;;;;;;;;;9.20;99.90;9.50;99801.00;;;;340486;28;83502;-95
2022/11/07 00:05:53;;;;;;;;;;;9.20;99.90;9.50;99799.00;;;;336403;28;87991;-94
2022/11/07 00:06:05;;;;;;;;;;;9.20;99.90;9.50;99797.00;;;;337905;28;82639;-94
2022/11/07 00:06:17;;;;;;;;;;;9.20;99.90;9.50;99797.00;;;;339062;28;87337;-95
2022/11/07 00:06:29;;;;;;;;;;;9.20;99.90;9.50;99802.00;;;;337842;28;83495;-94
2022/11/07 00:06:41;;;;;;;;;;;9.20;99.90;9.50;99807.00;;;;337695;28;87321;-94
2022/11/07 00:06:52;;;;;;;;;;;9.20;99.90;9.50;99803.00;;;;336587;28;83344;-94
2022/11/07 00:07:04;;;;;;;;;;;9.20;99.90;9.50;99806.00;;;;339041;28;86414;-95
2022/11/07 00:07:16;;;;;;;;;;;9.20;99.90;9.40;99801.00;;;;339243;28;83446;-95
2022/11/07 00:07:28;;;;;;;;;;;9.20;99.90;9.50;99799.00;;;;340367;28;87512;-94
2022/11/07 00:07:40;;;;;;;;;;;9.10;99.90;9.50;99805.00;;;;339119;28;82633;-96
2022/11/07 00:07:51;;;;;;;;;;;9.20;99.90;9.50;99803.00;;;;337771;28;87366;-95
2022/11/07 00:08:03;;;;;;;;;;;9.20;99.90;9.50;99799.00;;;;337905;28;83426;-94
2022/11/07 00:08:15;;;;;;;;;;;9.10;99.90;9.50;99805.00;;;;337678;28;87683;-95
2022/11/07 00:08:30;;;;;;;;;;;9.10;99.90;9.50;99801.00;;;;336724;28;83399;-95
2022/11/07 00:08:42;;;;;;;;;;;9.10;99.90;9.50;99800.00;;;;337711;28;87968;-94
2022/11/07 00:08:54;;;;;;;;;;;9.10;99.90;9.50;99798.00;;;;337626;28;83385;-94
2022/11/07 00:09:06;;;;;;;;;;;9.10;99.90;9.50;99795.00;;;;337720;28;86492;-94
2022/11/07 00:09:18;;;;;;;;;;;9.10;99.90;9.50;99804.00;;;;336644;28;83527;-95
2022/11/07 00:09:30;;;;;;;;;;;9.10;99.90;9.50;99803.00;;;;339092;28;87223;-95
2022/11/07 00:09:42;;;;;;;;;;;9.10;99.90;9.40;99804.00;;;;337859;28;83555;-95
2022/11/07 00:09:53;;;;;;;;;;;9.10;99.90;9.50;99800.00;;;;336553;28;86391;-94
2022/11/07 00:10:05;;;;;;;;;;;9.10;99.90;9.50;99798.00;;;;337911;28;82454;-95
2022/11/07 00:10:17;;;;;;;;;;;9.10;99.90;9.40;99797.00;;;;337791;28;86252;-94
2022/11/07 00:10:29;;;;;;;;;;;9.10;99.90;9.40;99793.00;;;;339270;28;83562;-94
2022/11/07 00:10:41;;;;;;;;;;;9.10;99.90;9.40;99801.00;;;;337766;28;86855;-95
2022/11/07 00:10:53;;;;;;;;;;;9.10;99.90;9.30;99805.00;;;;335014;29;82501;-95
2022/11/07 00:11:05;;;;;;;;;;;9.10;99.90;9.30;99793.00;;;;339140;28;86561;-95
2022/11/07 00:11:17;;;;;;;;;;;9.10;99.90;9.30;99800.00;;;;336533;28;83585;-94
2022/11/07 00:11:28;;;;;;;;;;;9.10;99.90;9.30;99803.00;;;;337799;28;88181;-95
2022/11/07 00:11:40;;;;;;;;;;;9.10;99.90;9.20;99802.00;;;;339172;28;82530;-94
2022/11/07 00:11:52;;;;;;;;;;;9.10;99.90;9.20;99800.00;;;;337799;28;86601;-95
2022/11/07 00:12:04;;;;;;;;;;;9.10;99.90;9.30;99810.00;;;;336604;28;83522;-95
2022/11/07 00:12:16;;;;;;;;;;;9.10;99.90;9.30;99805.00;;;;336447;28;87033;-94
2022/11/07 00:12:27;;;;;;;;;;;9.10;99.90;9.30;99810.00;;;;335350;29;83445;-95
2022/11/07 00:12:39;;;;;;;;;;;9.10;99.90;9.40;99805.00;;;;336502;28;83769;-95
2022/11/07 00:12:51;;;;;;;;;;;9.10;99.90;9.40;99802.00;;;;336583;28;82498;-95
2022/11/07 00:13:03;;;;;;;;;;;9.10;99.90;9.40;99799.00;;;;336489;28;86508;-94
2022/11/07 00:13:15;;;;;;;;;;;9.10;99.90;9.40;99800.00;;;;337759;28;83166;-94
2022/11/07 00:13:27;;;;;;;;;;;9.10;99.90;9.40;99802.00;;;;336552;28;87117;-94
2022/11/07 00:13:39;;;;;;;;;;;9.10;99.90;9.40;99804.00;;;;338044;28;83618;-94
2022/11/07 00:13:51;;;;;;;;;;;9.00;99.90;9.40;99800.00;;;;338130;28;86519;-94
2022/11/07 00:14:03;;;;;;;;;;;9.10;99.90;9.40;99803.00;;;;338246;28;82497;-94
2022/11/07 00:14:15;;;;;;;;;;;9.10;99.90;9.40;99793.00;;;;339295;28;86224;-94
2022/11/07 00:14:28;;;;;;;;;;;9.10;99.90;9.40;99804.00;;;;339452;28;82578;-95
2022/11/07 00:14:40;;;;;;;;;;;9.10;99.90;9.40;99800.00;;;;339417;28;86224;-95
2022/11/07 00:14:52;;;;;;;;;;;9.10;99.90;9.30;99795.00;;;;338092;28;83535;-95
2022/11/07 00:15:04;;;;;;;;;;;9.10;99.90;9.30;99802.00;;;;337991;28;86380;-94
2022/11/07 00:15:16;;;;;;;;;;;9.00;99.90;9.30;99806.00;;;;338184;28;83463;-95
2022/11/07 00:15:27;;;;;;;;;;;9.00;99.90;9.30;99794.00;;;;337991;28;86057;-94
2022/11/07 00:15:39;;;;;;;;;;;9.00;99.90;9.30;99802.00;;;;337775;28;82700;-94
2022/11/07 00:15:51;;;;;;;;;;;9.00;99.90;9.40;99799.00;;;;338013;28;87365;-94
2022/11/07 00:16:07;;;;;;;;;;;9.00;99.90;9.40;99810.00;;;;336891;28;83505;-95
2022/11/07 00:16:19;;;;;;;;;;;9.00;99.90;9.30;99803.00;;;;335329;28;87862;-94
2022/11/07 00:16:31;;;;;;;;;;;9.00;99.90;9.30;99811.00;;;;336798;28;83524;-95
2022/11/07 00:16:43;;;;;;;;;;;9.00;99.90;9.40;99800.00;;;;336709;28;87576;-95
2022/11/07 00:16:56;;;;;;;;;;;9.00;99.90;9.50;99802.00;;;;338158;28;83436;-95
2022/11/07 00:17:08;;;;;;;;;;;9.00;99.90;9.40;99801.00;;;;337882;28;86759;-94
2022/11/07 00:17:20;;;;;;;;;;;9.00;99.90;9.40;99796.00;;;;338448;28;83297;-94
2022/11/07 00:17:31;;;;;;;;;;;9.00;99.90;9.40;99809.00;;;;340008;28;83889;-94
2022/11/07 00:17:43;;;;;;;;;;;9.00;99.90;9.40;99805.00;;;;337369;28;82405;-94
2022/11/07 00:17:56;;;;;;;;;;;9.00;99.90;9.40;99801.00;;;;338529;28;86664;-94
2022/11/07 00:18:08;;;;;;;;;;;9.00;99.90;9.40;99805.00;;;;339910;28;83624;-95
2022/11/07 00:18:20;;;;;;;;;;;9.00;99.90;9.40;99802.00;;;;338522;28;86158;-95
2022/11/07 00:18:32;;;;;;;;;;;9.00;99.90;9.30;99798.00;;;;338368;28;82489;-94
2022/11/07 00:18:44;;;;;;;;;;;9.00;99.90;9.30;99796.00;;;;340024;28;86131;-95
2022/11/07 00:18:56;;;;;;;;;;;9.00;99.90;9.40;99807.00;;;;338589;28;82424;-95
2022/11/07 00:19:08;;;;;;;;;;;9.00;99.90;9.50;99803.00;;;;339733;28;86637;-94
2022/11/07 00:19:20;;;;;;;;;;;9.00;99.90;9.50;99803.00;;;;341278;28;82352;-95
2022/11/07 00:19:32;;;;;;;;;;;9.00;99.90;9.50;99796.00;;;;338397;28;85766;-95
2022/11/07 00:19:44;;;;;;;;;;;9.00;99.90;9.50;99798.00;;;;338528;28;82329;-95
2022/11/07 00:19:56;;;;;;;;;;;9.00;99.90;9.40;99802.00;;;;338615;28;86614;-94
2022/11/07 00:20:08;;;;;;;;;;;9.00;99.90;9.50;99801.00;;;;340055;28;82363;-94
2022/11/07 00:20:20;;;;;;;;;;;9.00;99.90;9.50;99802.00;;;;338663;28;86707;-95
2022/11/07 00:20:31;;;;;;;;;;;9.00;99.90;9.40;99799.00;;;;338771;28;82628;-94
2022/11/07 00:20:43;;;;;;;;;;;9.00;99.90;9.40;99804.00;;;;341116;28;85950;-94
2022/11/07 00:20:55;;;;;;;;;;;9.00;99.90;9.40;99798.00;;;;338597;28;83374;-94
2022/11/07 00:21:08;;;;;;;;;;;9.00;99.90;9.40;99792.00;;;;339730;28;86617;-94
2022/11/07 00:21:20;;;;;;;;;;;9.00;99.90;9.40;99802.00;;;;336917;28;82570;-95
2022/11/07 00:21:32;;;;;;;;;;;9.00;99.90;9.40;99794.00;;;;336485;28;87843;-94
2022/11/07 00:21:43;;;;;;;;;;;9.00;99.90;9.40;99798.00;;;;336721;28;82568;-95
2022/11/07 00:21:55;;;;;;;;;;;9.00;99.90;9.40;99799.00;;;;336595;28;86691;-94
2022/11/07 00:22:07;;;;;;;;;;;9.00;99.90;9.30;99792.00;;;;339503;28;82487;-95
2022/11/07 00:22:19;;;;;;;;;;;9.00;99.90;9.30;99791.00;;;;337962;28;84775;-94
2022/11/07 00:22:31;;;;;;;;;;;9.00;99.90;9.30;99797.00;;;;338071;28;82584;-95
2022/11/07 00:22:43;;;;;;;;;;;9.00;99.90;9.30;99794.00;;;;338066;28;86177;-95
2022/11/07 00:22:55;;;;;;;;;;;9.00;99.90;9.30;99790.00;;;;336720;28;83376;-94
2022/11/07 00:23:07;;;;;;;;;;;9.00;99.90;9.30;99801.00;;;;336655;28;87958;-94
2022/11/07 00:23:19;;;;;;;;;;;9.00;99.90;9.30;99803.00;;;;335491;29;83441;-95
2022/11/07 00:23:31;;;;;;;;;;;9.00;99.90;9.30;99801.00;;;;336682;28;86699;-95
2022/11/07 00:23:42;;;;;;;;;;;9.00;99.90;9.20;99799.00;;;;338071;28;82536;-95
2022/11/07 00:23:54;;;;;;;;;;;8.90;99.90;9.30;99803.00;;;;336736;28;87654;-95
2022/11/07 00:24:06;;;;;;;;;;;9.00;99.90;9.30;99799.00;;;;337865;28;82501;-95
2022/11/07 00:24:18;;;;;;;;;;;8.90;99.90;9.20;99806.00;;;;335279;28;85580;-94
2022/11/07 00:24:30;;;;;;;;;;;9.00;99.90;9.20;99806.00;;;;338081;28;83484;-94
2022/11/07 00:24:42;;;;;;;;;;;9.00;99.90;9.30;99799.00;;;;337921;28;86830;-95
2022/11/07 00:24:53;;;;;;;;;;;8.90;99.90;9.30;99803.00;;;;338129;28;83313;-95
2022/11/07 00:25:06;;;;;;;;;;;8.90;99.90;9.30;99801.00;;;;336691;28;87807;-94
2022/11/07 00:25:18;;;;;;;;;;;8.90;99.90;9.30;99800.00;;;;338048;28;82689;-95
2022/11/07 00:25:30;;;;;;;;;;;8.90;99.90;9.20;99804.00;;;;334073;29;86688;-94
2022/11/07 00:25:41;;;;;;;;;;;8.90;99.90;9.20;99805.00;;;;335451;29;82531;-95
2022/11/07 00:25:53;;;;;;;;;;;8.90;99.90;9.30;99799.00;;;;338079;28;86077;-94
2022/11/07 00:26:07;;;;;;;;;;;8.90;99.90;9.30;99802.00;;;;336807;28;83479;-94
2022/11/07 00:26:20;;;;;;;;;;;8.90;99.90;9.30;99805.00;;;;336594;28;85784;-95
2022/11/07 00:26:32;;;;;;;;;;;8.90;99.90;9.30;99803.00;;;;336317;28;83493;-96
2022/11/07 00:26:44;;;;;;;;;;;8.90;99.90;9.30;99801.00;;;;335407;29;87514;-95
2022/11/07 00:26:56;;;;;;;;;;;8.90;99.90;9.30;99798.00;;;;336931;28;82611;-95
2022/11/07 00:27:08;;;;;;;;;;;8.90;99.90;9.30;99806.00;;;;336466;28;86845;-95
2022/11/07 00:27:20;;;;;;;;;;;8.90;99.90;9.30;99807.00;;;;335499;29;83271;-95
2022/11/07 00:27:31;;;;;;;;;;;8.90;99.90;9.30;99807.00;;;;336640;28;87847;-95
2022/11/07 00:27:43;;;;;;;;;;;8.90;99.90;9.30;99804.00;;;;336824;28;83459;-95
2022/11/07 00:27:55;;;;;;;;;;;8.90;99.90;9.30;99804.00;;;;336700;28;86445;-94
2022/11/07 00:28:07;;;;;;;;;;;8.90;99.90;9.30;99793.00;;;;335523;29;82461;-95
2022/11/07 00:28:18;;;;;;;;;;;8.90;99.90;9.40;99805.00;;;;334045;29;86319;-94
2022/11/07 00:28:36;;;;;;;;;;;8.90;99.90;9.40;99796.00;;;;336925;28;83388;-94
2022/11/07 00:28:48;;;;;;;;;;;8.90;99.90;9.30;99806.00;;;;335327;29;87667;-94
2022/11/07 00:29:00;;;;;;;;;;;8.90;99.90;9.30;99797.00;;;;338067;28;82697;-94
2022/11/07 00:29:16;;;;;;;;;;;8.90;99.90;9.30;99802.00;;;;335350;29;87643;-94
2022/11/07 00:29:28;;;;;;;;;;;8.90;99.90;9.30;99809.00;;;;335608;29;83179;-93
2022/11/07 00:29:40;;;;;;;;;;;8.90;99.90;9.30;99803.00;;;;335256;29;87096;-95
2022/11/07 00:29:52;;;;;;;;;;;8.90;99.90;9.30;99804.00;;;;336865;28;82520;-95
2022/11/07 00:30:04;;;;;;;;;;;8.90;99.90;9.20;99808.00;;;;338021;28;87278;-95
2022/11/07 00:30:16;;;;;;;;;;;8.90;99.90;9.20;99799.00;;;;336465;28;82578;-95
2022/11/07 00:30:28;;;;;;;;;;;8.90;99.90;9.30;99798.00;;;;335362;29;86531;-94
2022/11/07 00:30:40;;;;;;;;;;;8.90;99.90;9.30;99808.00;;;;335563;29;83507;-94
2022/11/07 00:30:52;;;;;;;;;;;8.90;99.90;9.30;99806.00;;;;336616;28;86835;-95
2022/11/07 00:31:04;;;;;;;;;;;8.90;99.90;9.30;99808.00;;;;335556;29;82549;-94
2022/11/07 00:31:16;;;;;;;;;;;8.80;99.90;9.30;99800.00;;;;335361;29;87476;-95
2022/11/07 00:31:28;;;;;;;;;;;8.90;99.90;9.30;99806.00;;;;334240;29;82558;-94
2022/11/07 00:31:40;;;;;;;;;;;8.90;99.90;9.30;99810.00;;;;336540;28;87714;-95
2022/11/07 00:31:52;;;;;;;;;;;8.90;99.90;9.30;99809.00;;;;336782;28;83497;-94
2022/11/07 00:32:04;;;;;;;;;;;8.90;99.90;9.30;99805.00;;;;336716;28;87654;-95
2022/11/07 00:32:15;;;;;;;;;;;8.90;99.90;9.30;99804.00;;;;335528;29;82522;-95
2022/11/07 00:32:27;;;;;;;;;;;8.90;99.90;9.30;99805.00;;;;336699;28;86988;-95
2022/11/07 00:32:39;;;;;;;;;;;8.90;99.90;9.30;99807.00;;;;338125;28;82548;-95
2022/11/07 00:32:51;;;;;;;;;;;8.90;99.90;9.30;99804.00;;;;337918;28;86769;-94
2022/11/07 00:33:09;;;;;;;;;;;8.90;99.90;9.30;99806.00;;;;338134;28;82482;-95
2022/11/07 00:33:21;;;;;;;;;;;8.90;99.90;9.30;99810.00;;;;338049;28;86907;-94
2022/11/07 00:33:33;;;;;;;;;;;8.80;99.90;9.20;99799.00;;;;339217;28;83504;-94
2022/11/07 00:33:44;;;;;;;;;;;8.90;99.90;9.20;99805.00;;;;337709;28;87169;-94
2022/11/07 00:33:56;;;;;;;;;;;8.90;99.90;9.20;99801.00;;;;336800;28;83522;-95
2022/11/07 00:34:08;;;;;;;;;;;8.90;99.90;9.30;99808.00;;;;336661;28;87154;-94
2022/11/07 00:34:20;;;;;;;;;;;8.90;99.90;9.30;99798.00;;;;335397;29;83550;-95
2022/11/07 00:34:34;;;;;;;;;;;8.90;99.90;9.30;99806.00;;;;337963;28;88060;-95
2022/11/07 00:34:46;;;;;;;;;;;8.80;99.90;9.40;99806.00;;;;338089;28;83400;-95
2022/11/07 00:34:59;;;;;;;;;;;8.90;99.90;9.40;99801.00;;;;337932;28;86038;-95
2022/11/07 00:35:11;;;;;;;;;;;8.90;99.90;9.30;99799.00;;;;334266;29;83410;-96
2022/11/07 00:35:22;;;;;;;;;;;8.90;99.90;9.30;99800.00;;;;335326;29;86913;-94
2022/11/07 00:35:34;;;;;;;;;;;8.90;99.90;9.30;99804.00;;;;339458;28;82616;-95
2022/11/07 00:35:46;;;;;;;;;;;8.90;99.90;9.50;99806.00;;;;336640;28;87775;-94
2022/11/07 00:35:58;;;;;;;;;;;8.90;99.90;9.50;99800.00;;;;338149;28;82542;-94
2022/11/07 00:36:16;;;;;;;;;;;8.90;99.90;9.60;99798.00;;;;339378;28;87113;-95
2022/11/07 00:36:28;;;;;;;;;;;8.90;99.90;9.60;99803.00;;;;337933;28;82548;-95
2022/11/07 00:36:40;;;;;;;;;;;8.90;99.90;9.40;99809.00;;;;336616;28;86546;-95
2022/11/07 00:36:51;;;;;;;;;;;8.90;99.90;9.40;99793.00;;;;335445;29;82578;-94
2022/11/07 00:37:03;;;;;;;;;;;8.90;99.90;9.40;99804.00;;;;336614;28;87689;-95
2022/11/07 00:37:15;;;;;;;;;;;8.90;99.90;9.40;99805.00;;;;338155;28;83360;-95
2022/11/07 00:37:27;;;;;;;;;;;8.90;99.90;9.50;99804.00;;;;336698;28;86613;-95
2022/11/07 00:37:38;;;;;;;;;;;8.90;99.90;9.40;99805.00;;;;339381;28;82502;-94
2022/11/07 00:37:53;;;;;;;;;;;8.90;99.90;9.50;99809.00;;;;338053;28;87959;-94
2022/11/07 00:38:04;;;;;;;;;;;8.90;99.90;9.50;99800.00;;;;338139;28;83432;-94
2022/11/07 00:38:16;;;;;;;;;;;8.90;99.90;9.40;99799.00;;;;339218;28;86965;-94
2022/11/07 00:38:28;;;;;;;;;;;8.90;99.90;9.50;99804.00;;;;339468;28;83381;-94
2022/11/07 00:38:40;;;;;;;;;;;8.90;99.90;9.30;99793.00;;;;337725;28;85234;-95
2022/11/07 00:38:52;;;;;;;;;;;8.90;99.90;9.40;99802.00;;;;336698;28;83474;-95
2022/11/07 00:39:04;;;;;;;;;;;8.90;99.90;9.40;99797.00;;;;334999;29;86278;-94
2022/11/07 00:39:16;;;;;;;;;;;8.90;99.90;9.50;99808.00;;;;338022;28;82584;-94
2022/11/07 00:39:28;;;;;;;;;;;8.90;99.90;9.40;99801.00;;;;337852;28;85363;-94
2022/11/07 00:39:40;;;;;;;;;;;8.90;99.90;9.20;99809.00;;;;339294;28;83532;-94
2022/11/07 00:39:51;;;;;;;;;;;8.90;99.90;9.20;99804.00;;;;336720;28;86132;-95
2022/11/07 00:40:04;;;;;;;;;;;8.90;99.90;9.30;99809.00;;;;339467;28;82592;-94
2022/11/07 00:40:15;;;;;;;;;;;8.90;99.90;9.50;99811.00;;;;336427;28;86394;-95
2022/11/07 00:40:27;;;;;;;;;;;8.90;99.90;9.40;99801.00;;;;336738;28;83483;-94
2022/11/07 00:40:39;;;;;;;;;;;8.90;99.90;9.30;99808.00;;;;337572;28;89592;-94
2022/11/07 00:40:57;;;;;;;;;;;9.00;99.90;9.40;99804.00;;;;336778;28;82534;-94
2022/11/07 00:41:09;;;;;;;;;;;8.90;99.90;9.40;99805.00;;;;336413;28;91737;-94
2022/11/07 00:41:21;;;;;;;;;;;8.90;99.90;9.40;99801.00;;;;336570;28;83452;-94
2022/11/07 00:41:33;;;;;;;;;;;8.90;99.90;9.40;99801.00;;;;338893;28;91232;-95
2022/11/07 00:41:48;;;;;;;;;;;8.90;99.90;9.30;99800.00;;;;335431;29;83492;-95
2022/11/07 00:41:59;;;;;;;;;;;8.90;99.90;9.20;99798.00;;;;336380;28;91933;-94
2022/11/07 00:42:11;;;;;;;;;;;8.90;99.90;9.20;99800.00;;;;338045;28;83364;-95
2022/11/07 00:42:23;;;;;;;;;;;8.90;99.90;9.20;99799.00;;;;337684;28;90514;-95
2022/11/07 00:42:35;;;;;;;;;;;8.90;99.90;9.20;99799.00;;;;337879;28;82667;-95
2022/11/07 00:42:46;;;;;;;;;;;8.90;99.90;9.20;99800.00;;;;336163;28;90500;-95
2022/11/07 00:42:58;;;;;;;;;;;8.90;99.90;9.30;99799.00;;;;338049;28;82531;-94
2022/11/07 00:43:10;;;;;;;;;;;8.90;99.90;9.30;99802.00;;;;337723;28;91376;-94
2022/11/07 00:43:23;;;;;;;;;;;8.90;99.90;9.30;99798.00;;;;337950;28;83551;-95
2022/11/07 00:43:34;;;;;;;;;;;8.90;99.90;9.20;99799.00;;;;334816;29;90212;-95
2022/11/07 00:43:55;;;;;;;;;;;8.90;99.90;9.10;99807.00;;;;336160;28;82385;-94
2022/11/07 00:44:07;;;;;;;;;;;8.90;99.90;9.10;99798.00;;;;335189;29;90649;-95
2022/11/07 00:44:19;;;;;;;;;;;8.90;99.90;9.00;99803.00;;;;337984;28;83553;-95
2022/11/07 00:44:30;;;;;;;;;;;8.80;99.90;9.00;99807.00;;;;338985;28;90321;-94
2022/11/07 00:44:42;;;;;;;;;;;8.80;99.90;9.10;99799.00;;;;338010;28;83569;-94
2022/11/07 00:44:54;;;;;;;;;;;8.80;99.90;9.20;99805.00;;;;336112;28;90529;-94
2022/11/07 00:45:06;;;;;;;;;;;8.80;99.90;9.20;99799.00;;;;335515;29;82513;-94
2022/11/07 00:45:18;;;;;;;;;;;8.80;99.90;9.30;99803.00;;;;337731;28;90910;-94
2022/11/07 00:45:30;;;;;;;;;;;8.80;99.90;9.30;99804.00;;;;338166;28;82366;-95
2022/11/07 00:45:42;;;;;;;;;;;8.80;99.90;9.30;99804.00;;;;336341;28;92647;-94
2022/11/07 00:45:53;;;;;;;;;;;8.80;99.90;9.30;99810.00;;;;338140;28;83867;-94
2022/11/07 00:46:06;;;;;;;;;;;8.80;99.90;9.30;99797.00;;;;336448;28;90964;-95
2022/11/07 00:46:18;;;;;;;;;;;8.90;99.90;9.20;99812.00;;;;337989;28;83378;-95
2022/11/07 00:46:30;;;;;;;;;;;8.90;99.90;9.20;99806.00;;;;336234;28;90768;-94
2022/11/07 00:46:42;;;;;;;;;;;8.80;99.90;9.20;99817.00;;;;338182;28;82435;-94
2022/11/07 00:46:54;;;;;;;;;;;8.80;99.90;9.10;99803.00;;;;335008;29;91978;-94
2022/11/07 00:47:05;;;;;;;;;;;8.80;99.90;9.10;99818.00;;;;336825;28;83462;-93
2022/11/07 00:47:17;;;;;;;;;;;8.80;99.90;9.10;99807.00;;;;336458;28;91611;-95
2022/11/07 00:47:29;;;;;;;;;;;8.80;99.90;9.00;99807.00;;;;336792;28;83494;-93
2022/11/07 00:47:40;;;;;;;;;;;8.80;99.90;9.00;99804.00;;;;338902;28;91601;-94
2022/11/07 00:47:53;;;;;;;;;;;8.80;99.90;9.00;99812.00;;;;336739;28;83494;-95
2022/11/07 00:48:05;;;;;;;;;;;8.80;99.90;9.10;99805.00;;;;335153;29;90492;-93
2022/11/07 00:48:17;;;;;;;;;;;8.80;99.90;9.20;99806.00;;;;337831;28;82599;-95
2022/11/07 00:48:29;;;;;;;;;;;8.80;99.90;9.10;99807.00;;;;335107;29;91357;-95
2022/11/07 00:48:41;;;;;;;;;;;8.80;99.90;9.10;99803.00;;;;336787;28;83658;-94
2022/11/07 00:48:53;;;;;;;;;;;8.80;99.90;9.10;99798.00;;;;337664;28;90975;-94
2022/11/07 00:49:05;;;;;;;;;;;8.80;99.90;9.20;99803.00;;;;336724;28;83576;-93
2022/11/07 00:49:16;;;;;;;;;;;8.80;99.90;9.20;99801.00;;;;336052;28;90093;-95
2022/11/07 00:49:28;;;;;;;;;;;8.80;99.90;9.10;99811.00;;;;338108;28;83552;-94
2022/11/07 00:49:40;;;;;;;;;;;8.80;99.90;9.10;99807.00;;;;336234;28;92335;-94
2022/11/07 00:49:51;;;;;;;;;;;8.70;99.90;9.10;99805.00;;;;336840;28;82546;-94
2022/11/07 00:50:04;;;;;;;;;;;8.80;99.90;9.10;99804.00;;;;338879;28;90745;-94
2022/11/07 00:50:15;;;;;;;;;;;8.70;99.90;9.10;99802.00;;;;338136;28;82519;-95
2022/11/07 00:50:27;;;;;;;;;;;8.80;99.90;9.10;99797.00;;;;336435;28;90222;-94
2022/11/07 00:50:39;;;;;;;;;;;8.70;99.90;9.10;99795.00;;;;335510;29;82505;-94
2022/11/07 00:50:51;;;;;;;;;;;8.70;99.90;9.10;99803.00;;;;337501;28;91396;-95
2022/11/07 00:51:07;;;;;;;;;;;8.70;99.90;9.30;99810.00;;;;338122;28;82523;-95
2022/11/07 00:51:21;;;;;;;;;;;8.70;99.90;9.20;99801.00;;;;335100;29;90276;-94
2022/11/07 00:51:33;;;;;;;;;;;8.70;99.90;9.20;99802.00;;;;338177;28;82543;-94
2022/11/07 00:51:45;;;;;;;;;;;8.70;99.90;9.10;99806.00;;;;336314;28;92251;-94
2022/11/07 00:51:56;;;;;;;;;;;8.70;99.90;9.10;99808.00;;;;336741;28;83571;-95
2022/11/07 00:52:08;;;;;;;;;;;8.70;99.90;9.10;99808.00;;;;336430;28;90042;-94
2022/11/07 00:52:20;;;;;;;;;;;8.80;99.90;9.10;99801.00;;;;336627;28;83599;-95
2022/11/07 00:52:32;;;;;;;;;;;8.70;99.90;9.10;99799.00;;;;333843;29;90308;-94
2022/11/07 00:52:43;;;;;;;;;;;8.70;99.90;9.10;99797.00;;;;335548;29;82546;-94
2022/11/07 00:52:56;;;;;;;;;;;8.70;99.90;9.10;99807.00;;;;334961;29;91470;-94
2022/11/07 00:53:08;;;;;;;;;;;8.70;99.90;9.10;99802.00;;;;336715;28;83253;-94
2022/11/07 00:53:19;;;;;;;;;;;8.70;99.90;9.10;99799.00;;;;337745;28;90295;-94
2022/11/07 00:53:31;;;;;;;;;;;8.70;99.90;9.10;99797.00;;;;335357;28;83556;-94
2022/11/07 00:53:43;;;;;;;;;;;8.70;99.90;9.10;99811.00;;;;336265;28;91558;-95
2022/11/07 00:53:55;;;;;;;;;;;8.70;99.90;9.10;99801.00;;;;335472;29;82556;-95
2022/11/07 00:54:06;;;;;;;;;;;8.70;99.90;9.20;99799.00;;;;336471;28;90897;-94
2022/11/07 00:54:18;;;;;;;;;;;8.70;99.90;9.20;99799.00;;;;338109;28;82611;-94
2022/11/07 00:54:30;;;;;;;;;;;8.70;99.90;9.20;99801.00;;;;339187;28;91258;-94
2022/11/07 00:54:42;;;;;;;;;;;8.70;99.90;9.10;99809.00;;;;338007;28;83461;-95
2022/11/07 00:54:53;;;;;;;;;;;8.70;99.90;9.10;99807.00;;;;334913;29;91204;-94
2022/11/07 00:55:05;;;;;;;;;;;8.70;99.90;9.20;99804.00;;;;335480;29;83522;-94
2022/11/07 00:55:17;;;;;;;;;;;8.70;99.90;9.10;99808.00;;;;335120;29;91013;-94
2022/11/07 00:55:31;;;;;;;;;;;8.70;99.90;9.00;99800.00;;;;334209;29;82540;-94
2022/11/07 00:55:43;;;;;;;;;;;8.70;99.90;8.90;99808.00;;;;337437;28;91244;-94
2022/11/07 00:55:59;;;;;;;;;;;8.70;99.90;9.10;99804.00;;;;338065;28;83466;-95
2022/11/07 00:56:12;;;;;;;;;;;8.70;99.90;9.10;99805.00;;;;338645;28;91658;-94
2022/11/07 00:56:24;;;;;;;;;;;8.70;99.90;9.10;99805.00;;;;336726;28;83499;-94
2022/11/07 00:56:36;;;;;;;;;;;8.60;99.90;9.10;99805.00;;;;336291;28;91407;-94
2022/11/07 00:56:48;;;;;;;;;;;8.70;99.90;9.10;99805.00;;;;336857;28;82545;-94
2022/11/07 00:56:59;;;;;;;;;;;8.70;99.90;9.10;99813.00;;;;336328;28;90702;-94
2022/11/07 00:57:11;;;;;;;;;;;8.70;99.90;9.10;99812.00;;;;338165;28;82512;-93
2022/11/07 00:57:23;;;;;;;;;;;8.70;99.90;9.10;99805.00;;;;336320;28;91518;-95
2022/11/07 00:57:34;;;;;;;;;;;8.70;99.90;9.10;99810.00;;;;338129;28;83424;-94
2022/11/07 00:57:46;;;;;;;;;;;8.70;99.90;9.10;99806.00;;;;337548;28;92730;-94
2022/11/07 00:57:58;;;;;;;;;;;8.70;99.90;9.20;99805.00;;;;336705;28;83458;-94
2022/11/07 00:58:10;;;;;;;;;;;8.70;99.90;9.10;99805.00;;;;335084;29;91831;-94
2022/11/07 00:58:25;;;;;;;;;;;8.70;99.90;9.10;99807.00;;;;338078;28;83400;-94
2022/11/07 00:58:36;;;;;;;;;;;8.70;99.90;9.10;99798.00;;;;335132;29;90631;-94
2022/11/07 00:58:53;;;;;;;;;;;8.70;99.90;9.00;99801.00;;;;335430;29;83579;-94
2022/11/07 00:59:05;;;;;;;;;;;8.70;99.90;9.00;99804.00;;;;335001;29;91062;-94
2022/11/07 00:59:16;;;;;;;;;;;8.70;99.90;9.00;99804.00;;;;335252;29;83530;-95
2022/11/07 00:59:28;;;;;;;;;;;8.70;99.90;9.00;99813.00;;;;335188;29;90397;-94
2022/11/07 00:59:40;;;;;;;;;;;8.60;99.90;8.90;99826.00;;;;334161;29;82577;-93
2022/11/07 00:59:52;;;;;;;;;;;8.70;99.90;8.90;99804.00;;;;336244;28;92392;-94
2022/11/07 01:00:04;;;;;;;;;;;8.60;99.90;8.90;99810.00;;;;338047;28;82587;-94
2022/11/07 01:00:16;;;;;;;;;;;8.60;99.90;8.80;99808.00;;;;336262;28;90761;-94
2022/11/07 01:00:27;;;;;;;;;;;8.60;99.90;8.80;99804.00;;;;335392;29;83483;-94
2022/11/07 01:00:39;;;;;;;;;;;8.60;99.90;8.80;99807.00;;;;334934;29;91567;-94
2022/11/07 01:00:52;;;;;;;;;;;8.60;99.90;8.80;99807.00;;;;336718;28;83549;-94
2022/11/07 01:01:12;;;;;;;;;;;8.60;99.90;8.80;99813.00;;;;336285;28;91852;-95
2022/11/07 01:01:26;;;;;;;;;;;8.60;99.90;8.90;99818.00;;;;338096;28;82499;-93
2022/11/07 01:01:38;;;;;;;;;;;8.60;99.90;8.90;99822.00;;;;336228;28;90557;-93
2022/11/07 01:01:50;;;;;;;;;;;8.60;99.90;8.90;99818.00;;;;338047;28;83454;-95
2022/11/07 01:02:02;;;;;;;;;;;8.60;99.90;8.90;99813.00;;;;338898;28;91804;-94